sensor_id;sensor_type;location;lat;lon;timestamp;P1;durP1;ratioP1;P2;durP2;ratioP2
41885;SDS011;27567;43.084;25.616;2024-01-25T00:00:58;34.63;;;16.77;;
41885;SDS011;27567;43.084;25.616;2024-01-25T00:03:42;31.80;;;15.23;;
41885;SDS011;27567;43.084;25.616;2024-01-25T00:06:26;34.20;;;14.55;;
41885;SDS011;27567;43.084;25.616;2024-01-25T00:09:10;26.15;;;13.43;;
41885;SDS011;27567;43.084;25.616;2024-01-25T00:11:54;26.98;;;12.50;;
41885;SDS011;27567;43.084;25.616;2024-01-25T00:14:38;21.90;;;11.70;;
41885;SDS011;27567;43.084;25.616;2024-01-25T00:17:22;22.58;;;10.73;;
41885;SDS011;27567;43.084;25.616;2024-01-25T00:20:08;19.60;;;10.10;;
41885;SDS011;27567;43.084;25.616;2024-01-25T00:22:54;20.38;;;10.23;;
41885;SDS011;27567;43.084;25.616;2024-01-25T00:25:38;16.13;;;8.77;;
41885;SDS011;27567;43.084;25.616;2024-01-25T00:28:22;22.77;;;11.98;;
41885;SDS011;27567;43.084;25.616;2024-01-25T00:31:06;29.52;;;12.85;;
41885;SDS011;27567;43.084;25.616;2024-01-25T00:33:50;22.48;;;11.73;;
41885;SDS011;27567;43.084;25.616;2024-01-25T00:36:34;20.48;;;10.18;;
41885;SDS011;27567;43.084;25.616;2024-01-25T00:39:18;19.52;;;10.25;;
41885;SDS011;27567;43.084;25.616;2024-01-25T00:42:03;24.65;;;11.00;;
41885;SDS011;27567;43.084;25.616;2024-01-25T00:44:49;22.08;;;11.80;;
41885;SDS011;27567;43.084;25.616;2024-01-25T00:47:33;13.18;;;6.32;;
41885;SDS011;27567;43.084;25.616;2024-01-25T00:50:18;13.45;;;6.88;;
41885;SDS011;27567;43.084;25.616;2024-01-25T00:53:07;6.45;;;3.55;;
41885;SDS011;27567;43.084;25.616;2024-01-25T00:55:52;10.88;;;3.30;;
41885;SDS011;27567;43.084;25.616;2024-01-25T00:58:37;7.38;;;3.00;;
41885;SDS011;27567;43.084;25.616;2024-01-25T01:01:21;5.80;;;3.10;;
41885;SDS011;27567;43.084;25.616;2024-01-25T01:04:06;4.55;;;2.50;;
41885;SDS011;27567;43.084;25.616;2024-01-25T01:06:51;6.35;;;2.78;;
41885;SDS011;27567;43.084;25.616;2024-01-25T01:09:35;6.47;;;3.42;;
41885;SDS011;27567;43.084;25.616;2024-01-25T01:12:19;7.35;;;3.38;;
41885;SDS011;27567;43.084;25.616;2024-01-25T01:15:03;7.07;;;2.80;;
41885;SDS011;27567;43.084;25.616;2024-01-25T01:17:48;7.68;;;3.22;;
41885;SDS011;27567;43.084;25.616;2024-01-25T01:20:32;6.05;;;3.15;;
41885;SDS011;27567;43.084;25.616;2024-01-25T01:23:16;7.03;;;3.42;;
41885;SDS011;27567;43.084;25.616;2024-01-25T01:26:00;5.60;;;3.00;;
41885;SDS011;27567;43.084;25.616;2024-01-25T01:28:44;6.47;;;3.45;;
41885;SDS011;27567;43.084;25.616;2024-01-25T01:31:28;4.82;;;3.05;;
41885;SDS011;27567;43.084;25.616;2024-01-25T01:34:13;5.38;;;3.38;;
41885;SDS011;27567;43.084;25.616;2024-01-25T01:36:58;8.02;;;3.42;;
41885;SDS011;27567;43.084;25.616;2024-01-25T01:39:42;6.32;;;3.05;;
41885;SDS011;27567;43.084;25.616;2024-01-25T01:42:27;6.53;;;3.35;;
41885;SDS011;27567;43.084;25.616;2024-01-25T01:45:11;7.32;;;2.63;;
41885;SDS011;27567;43.084;25.616;2024-01-25T01:47:56;3.90;;;2.08;;
41885;SDS011;27567;43.084;25.616;2024-01-25T01:50:43;3.42;;;1.70;;
41885;SDS011;27567;43.084;25.616;2024-01-25T01:53:28;2.45;;;1.38;;
41885;SDS011;27567;43.084;25.616;2024-01-25T01:56:12;2.40;;;1.20;;
41885;SDS011;27567;43.084;25.616;2024-01-25T01:58:58;6.60;;;2.40;;
41885;SDS011;27567;43.084;25.616;2024-01-25T02:01:44;2.97;;;1.60;;
41885;SDS011;27567;43.084;25.616;2024-01-25T02:04:28;2.42;;;1.38;;
41885;SDS011;27567;43.084;25.616;2024-01-25T02:07:11;3.08;;;1.35;;
41885;SDS011;27567;43.084;25.616;2024-01-25T02:09:57;3.13;;;1.50;;
41885;SDS011;27567;43.084;25.616;2024-01-25T02:12:41;3.78;;;1.50;;
41885;SDS011;27567;43.084;25.616;2024-01-25T02:15:25;3.40;;;1.83;;
41885;SDS011;27567;43.084;25.616;2024-01-25T02:18:09;9.45;;;2.92;;
41885;SDS011;27567;43.084;25.616;2024-01-25T02:20:54;2.33;;;1.50;;
41885;SDS011;27567;43.084;25.616;2024-01-25T02:23:37;4.07;;;1.77;;
41885;SDS011;27567;43.084;25.616;2024-01-25T02:26:21;4.45;;;2.20;;
41885;SDS011;27567;43.084;25.616;2024-01-25T02:29:05;3.05;;;1.20;;
41885;SDS011;27567;43.084;25.616;2024-01-25T02:31:51;0.75;;;0.55;;
41885;SDS011;27567;43.084;25.616;2024-01-25T02:34:35;2.60;;;0.80;;
41885;SDS011;27567;43.084;25.616;2024-01-25T02:37:19;1.67;;;1.20;;
41885;SDS011;27567;43.084;25.616;2024-01-25T02:40:03;2.10;;;0.80;;
41885;SDS011;27567;43.084;25.616;2024-01-25T02:42:48;1.02;;;0.65;;
41885;SDS011;27567;43.084;25.616;2024-01-25T02:45:33;0.65;;;0.60;;
41885;SDS011;27567;43.084;25.616;2024-01-25T02:48:17;1.02;;;0.55;;
41885;SDS011;27567;43.084;25.616;2024-01-25T02:51:01;2.13;;;0.68;;
41885;SDS011;27567;43.084;25.616;2024-01-25T02:53:45;1.15;;;0.50;;
41885;SDS011;27567;43.084;25.616;2024-01-25T02:56:29;1.77;;;0.57;;
41885;SDS011;27567;43.084;25.616;2024-01-25T02:59:18;1.27;;;0.60;;
41885;SDS011;27567;43.084;25.616;2024-01-25T03:02:01;0.98;;;0.60;;
41885;SDS011;27567;43.084;25.616;2024-01-25T03:04:45;1.13;;;0.70;;
41885;SDS011;27567;43.084;25.616;2024-01-25T03:07:29;0.77;;;0.50;;
41885;SDS011;27567;43.084;25.616;2024-01-25T03:10:13;2.15;;;0.63;;
41885;SDS011;27567;43.084;25.616;2024-01-25T03:12:57;0.63;;;0.40;;
41885;SDS011;27567;43.084;25.616;2024-01-25T03:15:42;1.52;;;0.52;;
41885;SDS011;27567;43.084;25.616;2024-01-25T03:18:27;1.00;;;0.50;;
41885;SDS011;27567;43.084;25.616;2024-01-25T03:21:14;1.92;;;0.55;;
41885;SDS011;27567;43.084;25.616;2024-01-25T03:23:58;1.08;;;0.50;;
41885;SDS011;27567;43.084;25.616;2024-01-25T03:26:42;1.40;;;0.57;;
41885;SDS011;27567;43.084;25.616;2024-01-25T03:29:26;3.60;;;1.33;;
41885;SDS011;27567;43.084;25.616;2024-01-25T03:32:10;1.80;;;0.60;;
41885;SDS011;27567;43.084;25.616;2024-01-25T03:34:54;0.98;;;0.52;;
41885;SDS011;27567;43.084;25.616;2024-01-25T03:37:38;1.85;;;0.75;;
41885;SDS011;27567;43.084;25.616;2024-01-25T03:40:23;2.08;;;0.68;;
41885;SDS011;27567;43.084;25.616;2024-01-25T03:43:07;2.10;;;0.70;;
41885;SDS011;27567;43.084;25.616;2024-01-25T03:45:51;1.10;;;0.80;;
41885;SDS011;27567;43.084;25.616;2024-01-25T03:48:35;1.52;;;0.60;;
41885;SDS011;27567;43.084;25.616;2024-01-25T03:51:19;2.15;;;0.70;;
41885;SDS011;27567;43.084;25.616;2024-01-25T03:54:04;1.50;;;0.70;;
41885;SDS011;27567;43.084;25.616;2024-01-25T03:56:48;1.38;;;0.70;;
41885;SDS011;27567;43.084;25.616;2024-01-25T03:59:32;1.48;;;0.50;;
41885;SDS011;27567;43.084;25.616;2024-01-25T04:02:16;3.15;;;0.45;;
41885;SDS011;27567;43.084;25.616;2024-01-25T04:05:00;1.23;;;0.70;;
41885;SDS011;27567;43.084;25.616;2024-01-25T04:07:45;1.02;;;0.38;;
41885;SDS011;27567;43.084;25.616;2024-01-25T04:10:29;1.42;;;0.50;;
41885;SDS011;27567;43.084;25.616;2024-01-25T04:13:12;0.93;;;0.63;;
41885;SDS011;27567;43.084;25.616;2024-01-25T04:15:56;1.55;;;0.60;;
41885;SDS011;27567;43.084;25.616;2024-01-25T04:18:40;3.30;;;1.30;;
41885;SDS011;27567;43.084;25.616;2024-01-25T04:21:24;1.30;;;0.65;;
41885;SDS011;27567;43.084;25.616;2024-01-25T04:24:08;0.98;;;0.57;;
41885;SDS011;27567;43.084;25.616;2024-01-25T04:26:52;0.60;;;0.60;;
41885;SDS011;27567;43.084;25.616;2024-01-25T04:29:42;1.08;;;0.73;;
41885;SDS011;27567;43.084;25.616;2024-01-25T04:32:27;1.20;;;0.65;;
41885;SDS011;27567;43.084;25.616;2024-01-25T04:35:11;1.05;;;0.73;;
41885;SDS011;27567;43.084;25.616;2024-01-25T04:37:55;2.40;;;0.93;;
41885;SDS011;27567;43.084;25.616;2024-01-25T04:40:40;4.32;;;0.93;;
41885;SDS011;27567;43.084;25.616;2024-01-25T04:43:23;1.90;;;0.88;;
41885;SDS011;27567;43.084;25.616;2024-01-25T04:46:08;2.05;;;1.08;;
41885;SDS011;27567;43.084;25.616;2024-01-25T04:48:52;1.70;;;0.85;;
41885;SDS011;27567;43.084;25.616;2024-01-25T04:51:36;1.35;;;0.70;;
41885;SDS011;27567;43.084;25.616;2024-01-25T04:54:20;1.92;;;0.82;;
41885;SDS011;27567;43.084;25.616;2024-01-25T04:57:04;2.40;;;1.00;;
41885;SDS011;27567;43.084;25.616;2024-01-25T04:59:50;1.58;;;0.75;;
41885;SDS011;27567;43.084;25.616;2024-01-25T05:02:34;1.98;;;0.73;;
41885;SDS011;27567;43.084;25.616;2024-01-25T05:05:18;2.20;;;0.77;;
41885;SDS011;27567;43.084;25.616;2024-01-25T05:08:02;0.95;;;0.68;;
41885;SDS011;27567;43.084;25.616;2024-01-25T05:10:46;2.13;;;1.05;;
41885;SDS011;27567;43.084;25.616;2024-01-25T05:13:31;3.15;;;1.13;;
41885;SDS011;27567;43.084;25.616;2024-01-25T05:16:15;1.95;;;0.98;;
41885;SDS011;27567;43.084;25.616;2024-01-25T05:18:59;1.17;;;0.90;;
41885;SDS011;27567;43.084;25.616;2024-01-25T05:21:44;2.65;;;1.20;;
41885;SDS011;27567;43.084;25.616;2024-01-25T05:24:28;2.95;;;1.35;;
41885;SDS011;27567;43.084;25.616;2024-01-25T05:27:12;2.50;;;1.00;;
41885;SDS011;27567;43.084;25.616;2024-01-25T05:29:56;2.38;;;1.05;;
41885;SDS011;27567;43.084;25.616;2024-01-25T05:32:41;2.17;;;1.05;;
41885;SDS011;27567;43.084;25.616;2024-01-25T05:35:25;2.88;;;1.25;;
41885;SDS011;27567;43.084;25.616;2024-01-25T05:38:10;3.05;;;0.88;;
41885;SDS011;27567;43.084;25.616;2024-01-25T05:40:53;2.58;;;1.15;;
41885;SDS011;27567;43.084;25.616;2024-01-25T05:43:37;1.98;;;0.98;;
41885;SDS011;27567;43.084;25.616;2024-01-25T05:46:21;2.75;;;1.17;;
41885;SDS011;27567;43.084;25.616;2024-01-25T05:49:05;5.47;;;0.93;;
41885;SDS011;27567;43.084;25.616;2024-01-25T05:51:50;2.08;;;1.17;;
41885;SDS011;27567;43.084;25.616;2024-01-25T05:54:34;2.42;;;1.10;;
41885;SDS011;27567;43.084;25.616;2024-01-25T05:57:18;5.15;;;1.63;;
41885;SDS011;27567;43.084;25.616;2024-01-25T06:00:03;3.20;;;1.15;;
41885;SDS011;27567;43.084;25.616;2024-01-25T06:02:48;3.85;;;1.30;;
41885;SDS011;27567;43.084;25.616;2024-01-25T06:05:32;6.28;;;1.25;;
41885;SDS011;27567;43.084;25.616;2024-01-25T06:08:16;5.93;;;1.52;;
41885;SDS011;27567;43.084;25.616;2024-01-25T06:11:00;3.30;;;1.13;;
41885;SDS011;27567;43.084;25.616;2024-01-25T06:13:45;2.35;;;1.20;;
41885;SDS011;27567;43.084;25.616;2024-01-25T06:16:29;1.52;;;1.20;;
41885;SDS011;27567;43.084;25.616;2024-01-25T06:19:13;4.32;;;1.40;;
41885;SDS011;27567;43.084;25.616;2024-01-25T06:21:57;2.47;;;1.52;;
41885;SDS011;27567;43.084;25.616;2024-01-25T06:24:41;3.70;;;1.55;;
41885;SDS011;27567;43.084;25.616;2024-01-25T06:27:25;5.30;;;1.33;;
41885;SDS011;27567;43.084;25.616;2024-01-25T06:30:10;5.93;;;1.90;;
41885;SDS011;27567;43.084;25.616;2024-01-25T06:32:54;2.20;;;1.40;;
41885;SDS011;27567;43.084;25.616;2024-01-25T06:35:38;3.92;;;1.88;;
41885;SDS011;27567;43.084;25.616;2024-01-25T06:38:22;1.85;;;1.35;;
41885;SDS011;27567;43.084;25.616;2024-01-25T06:41:07;5.88;;;1.33;;
41885;SDS011;27567;43.084;25.616;2024-01-25T06:43:52;7.82;;;2.20;;
41885;SDS011;27567;43.084;25.616;2024-01-25T06:46:36;3.28;;;1.65;;
41885;SDS011;27567;43.084;25.616;2024-01-25T06:49:20;4.40;;;1.52;;
41885;SDS011;27567;43.084;25.616;2024-01-25T06:52:04;6.22;;;1.48;;
41885;SDS011;27567;43.084;25.616;2024-01-25T06:54:49;3.95;;;1.58;;
41885;SDS011;27567;43.084;25.616;2024-01-25T06:57:33;4.60;;;1.52;;
41885;SDS011;27567;43.084;25.616;2024-01-25T07:00:17;2.22;;;1.05;;
41885;SDS011;27567;43.084;25.616;2024-01-25T07:03:02;2.90;;;1.23;;
41885;SDS011;27567;43.084;25.616;2024-01-25T07:05:46;4.50;;;1.73;;
41885;SDS011;27567;43.084;25.616;2024-01-25T07:08:31;5.47;;;2.17;;
41885;SDS011;27567;43.084;25.616;2024-01-25T07:11:15;4.25;;;1.40;;
41885;SDS011;27567;43.084;25.616;2024-01-25T07:14:00;3.75;;;1.52;;
41885;SDS011;27567;43.084;25.616;2024-01-25T07:16:44;3.20;;;1.65;;
41885;SDS011;27567;43.084;25.616;2024-01-25T07:19:28;4.55;;;1.50;;
41885;SDS011;27567;43.084;25.616;2024-01-25T07:22:12;4.47;;;1.65;;
41885;SDS011;27567;43.084;25.616;2024-01-25T07:24:58;6.35;;;2.40;;
41885;SDS011;27567;43.084;25.616;2024-01-25T07:27:45;6.53;;;2.35;;
41885;SDS011;27567;43.084;25.616;2024-01-25T07:30:30;7.35;;;1.90;;
41885;SDS011;27567;43.084;25.616;2024-01-25T07:33:14;5.60;;;1.63;;
41885;SDS011;27567;43.084;25.616;2024-01-25T07:35:58;6.47;;;1.83;;
41885;SDS011;27567;43.084;25.616;2024-01-25T07:38:42;6.05;;;1.80;;
41885;SDS011;27567;43.084;25.616;2024-01-25T07:41:26;6.25;;;2.33;;
41885;SDS011;27567;43.084;25.616;2024-01-25T07:44:10;6.30;;;2.20;;
41885;SDS011;27567;43.084;25.616;2024-01-25T07:46:54;8.48;;;2.08;;
41885;SDS011;27567;43.084;25.616;2024-01-25T07:49:40;5.22;;;1.67;;
41885;SDS011;27567;43.084;25.616;2024-01-25T07:52:24;4.25;;;0.88;;
41885;SDS011;27567;43.084;25.616;2024-01-25T07:55:08;4.35;;;1.52;;
41885;SDS011;27567;43.084;25.616;2024-01-25T07:57:52;5.03;;;2.38;;
41885;SDS011;27567;43.084;25.616;2024-01-25T08:00:36;6.63;;;1.85;;
41885;SDS011;27567;43.084;25.616;2024-01-25T08:03:21;7.18;;;2.17;;
41885;SDS011;27567;43.084;25.616;2024-01-25T08:06:05;5.95;;;2.80;;
41885;SDS011;27567;43.084;25.616;2024-01-25T08:08:50;5.55;;;1.70;;
41885;SDS011;27567;43.084;25.616;2024-01-25T08:11:34;8.60;;;2.72;;
41885;SDS011;27567;43.084;25.616;2024-01-25T08:14:18;6.10;;;2.47;;
41885;SDS011;27567;43.084;25.616;2024-01-25T08:17:03;6.00;;;1.85;;
41885;SDS011;27567;43.084;25.616;2024-01-25T08:19:47;4.72;;;2.22;;
41885;SDS011;27567;43.084;25.616;2024-01-25T08:22:31;7.53;;;2.05;;
41885;SDS011;27567;43.084;25.616;2024-01-25T08:25:15;4.25;;;1.42;;
41885;SDS011;27567;43.084;25.616;2024-01-25T08:28:00;7.53;;;1.75;;
41885;SDS011;27567;43.084;25.616;2024-01-25T08:30:44;5.85;;;2.53;;
41885;SDS011;27567;43.084;25.616;2024-01-25T08:33:28;9.55;;;2.78;;
41885;SDS011;27567;43.084;25.616;2024-01-25T08:36:18;4.63;;;1.85;;
41885;SDS011;27567;43.084;25.616;2024-01-25T08:39:03;7.43;;;2.00;;
41885;SDS011;27567;43.084;25.616;2024-01-25T08:41:48;4.00;;;2.15;;
41885;SDS011;27567;43.084;25.616;2024-01-25T08:44:34;8.35;;;2.33;;
41885;SDS011;27567;43.084;25.616;2024-01-25T08:47:18;10.38;;;3.38;;
41885;SDS011;27567;43.084;25.616;2024-01-25T08:50:02;14.23;;;5.70;;
41885;SDS011;27567;43.084;25.616;2024-01-25T08:52:54;11.25;;;4.05;;
41885;SDS011;27567;43.084;25.616;2024-01-25T08:55:39;9.07;;;2.53;;
41885;SDS011;27567;43.084;25.616;2024-01-25T08:58:24;8.00;;;1.70;;
41885;SDS011;27567;43.084;25.616;2024-01-25T09:01:08;9.18;;;2.20;;
41885;SDS011;27567;43.084;25.616;2024-01-25T09:03:52;5.03;;;2.38;;
41885;SDS011;27567;43.084;25.616;2024-01-25T09:06:36;10.25;;;3.10;;
41885;SDS011;27567;43.084;25.616;2024-01-25T09:09:20;7.32;;;2.97;;
41885;SDS011;27567;43.084;25.616;2024-01-25T09:12:04;6.28;;;2.17;;
41885;SDS011;27567;43.084;25.616;2024-01-25T09:14:51;16.73;;;3.75;;
41885;SDS011;27567;43.084;25.616;2024-01-25T09:17:36;9.35;;;2.38;;
41885;SDS011;27567;43.084;25.616;2024-01-25T09:20:20;9.43;;;2.30;;
41885;SDS011;27567;43.084;25.616;2024-01-25T09:23:04;7.60;;;3.25;;
41885;SDS011;27567;43.084;25.616;2024-01-25T09:25:48;5.60;;;2.25;;
41885;SDS011;27567;43.084;25.616;2024-01-25T09:28:32;8.05;;;2.00;;
41885;SDS011;27567;43.084;25.616;2024-01-25T09:31:16;5.47;;;1.83;;
41885;SDS011;27567;43.084;25.616;2024-01-25T09:34:00;8.65;;;2.30;;
41885;SDS011;27567;43.084;25.616;2024-01-25T09:36:45;7.60;;;2.25;;
41885;SDS011;27567;43.084;25.616;2024-01-25T09:39:29;4.53;;;1.75;;
41885;SDS011;27567;43.084;25.616;2024-01-25T09:42:13;10.38;;;2.20;;
41885;SDS011;27567;43.084;25.616;2024-01-25T09:44:58;12.27;;;3.65;;
41885;SDS011;27567;43.084;25.616;2024-01-25T09:47:42;8.35;;;2.13;;
41885;SDS011;27567;43.084;25.616;2024-01-25T09:50:27;11.07;;;2.38;;
41885;SDS011;27567;43.084;25.616;2024-01-25T09:53:21;6.22;;;1.55;;
41885;SDS011;27567;43.084;25.616;2024-01-25T09:56:07;5.72;;;1.83;;
41885;SDS011;27567;43.084;25.616;2024-01-25T09:58:56;8.18;;;2.88;;
41885;SDS011;27567;43.084;25.616;2024-01-25T10:01:41;5.32;;;2.13;;
41885;SDS011;27567;43.084;25.616;2024-01-25T10:04:26;9.77;;;2.97;;
41885;SDS011;27567;43.084;25.616;2024-01-25T10:07:11;11.55;;;2.50;;
41885;SDS011;27567;43.084;25.616;2024-01-25T10:09:55;12.52;;;2.72;;
41885;SDS011;27567;43.084;25.616;2024-01-25T10:12:40;16.58;;;2.72;;
41885;SDS011;27567;43.084;25.616;2024-01-25T10:15:25;9.05;;;2.30;;
41885;SDS011;27567;43.084;25.616;2024-01-25T10:18:10;8.57;;;2.03;;
41885;SDS011;27567;43.084;25.616;2024-01-25T10:20:56;9.20;;;2.60;;
41885;SDS011;27567;43.084;25.616;2024-01-25T10:23:40;10.18;;;2.63;;
41885;SDS011;27567;43.084;25.616;2024-01-25T10:26:27;11.45;;;2.80;;
41885;SDS011;27567;43.084;25.616;2024-01-25T10:29:14;7.43;;;2.50;;
41885;SDS011;27567;43.084;25.616;2024-01-25T10:31:58;12.30;;;3.20;;
41885;SDS011;27567;43.084;25.616;2024-01-25T10:34:43;6.47;;;2.30;;
41885;SDS011;27567;43.084;25.616;2024-01-25T10:37:29;8.68;;;2.33;;
41885;SDS011;27567;43.084;25.616;2024-01-25T10:40:18;7.05;;;2.40;;
41885;SDS011;27567;43.084;25.616;2024-01-25T10:43:02;8.20;;;3.05;;
41885;SDS011;27567;43.084;25.616;2024-01-25T10:45:47;6.57;;;2.42;;
41885;SDS011;27567;43.084;25.616;2024-01-25T10:48:31;7.93;;;2.25;;
41885;SDS011;27567;43.084;25.616;2024-01-25T10:51:15;11.63;;;3.17;;
41885;SDS011;27567;43.084;25.616;2024-01-25T10:54:02;7.20;;;2.47;;
41885;SDS011;27567;43.084;25.616;2024-01-25T10:56:49;11.52;;;3.03;;
41885;SDS011;27567;43.084;25.616;2024-01-25T10:59:36;10.60;;;3.42;;
41885;SDS011;27567;43.084;25.616;2024-01-25T11:02:20;10.32;;;2.92;;
41885;SDS011;27567;43.084;25.616;2024-01-25T11:05:11;8.40;;;2.60;;
41885;SDS011;27567;43.084;25.616;2024-01-25T11:07:57;8.57;;;2.53;;
41885;SDS011;27567;43.084;25.616;2024-01-25T11:10:41;10.65;;;2.65;;
41885;SDS011;27567;43.084;25.616;2024-01-25T11:13:26;6.05;;;2.05;;
41885;SDS011;27567;43.084;25.616;2024-01-25T11:16:14;9.32;;;2.50;;
41885;SDS011;27567;43.084;25.616;2024-01-25T11:19:00;8.85;;;2.40;;
41885;SDS011;27567;43.084;25.616;2024-01-25T11:21:50;10.40;;;3.45;;
41885;SDS011;27567;43.084;25.616;2024-01-25T11:24:37;12.23;;;2.60;;
41885;SDS011;27567;43.084;25.616;2024-01-25T11:27:23;8.90;;;2.92;;
41885;SDS011;27567;43.084;25.616;2024-01-25T11:30:07;7.68;;;2.33;;
41885;SDS011;27567;43.084;25.616;2024-01-25T11:32:52;8.48;;;2.25;;
41885;SDS011;27567;43.084;25.616;2024-01-25T11:35:37;9.98;;;3.50;;
41885;SDS011;27567;43.084;25.616;2024-01-25T11:38:21;9.80;;;1.92;;
41885;SDS011;27567;43.084;25.616;2024-01-25T11:41:06;8.55;;;2.78;;
41885;SDS011;27567;43.084;25.616;2024-01-25T11:43:50;9.32;;;2.53;;
41885;SDS011;27567;43.084;25.616;2024-01-25T11:46:34;5.85;;;1.98;;
41885;SDS011;27567;43.084;25.616;2024-01-25T11:49:19;10.95;;;2.38;;
41885;SDS011;27567;43.084;25.616;2024-01-25T11:52:03;4.10;;;1.90;;
41885;SDS011;27567;43.084;25.616;2024-01-25T11:54:48;7.70;;;2.05;;
41885;SDS011;27567;43.084;25.616;2024-01-25T11:57:32;10.77;;;2.50;;
41885;SDS011;27567;43.084;25.616;2024-01-25T12:00:20;9.10;;;2.40;;
41885;SDS011;27567;43.084;25.616;2024-01-25T12:03:04;8.30;;;2.00;;
41885;SDS011;27567;43.084;25.616;2024-01-25T12:05:49;6.70;;;2.05;;
41885;SDS011;27567;43.084;25.616;2024-01-25T12:08:35;7.25;;;1.90;;
41885;SDS011;27567;43.084;25.616;2024-01-25T12:11:20;4.75;;;1.88;;
41885;SDS011;27567;43.084;25.616;2024-01-25T12:14:05;9.45;;;2.20;;
41885;SDS011;27567;43.084;25.616;2024-01-25T12:16:52;7.38;;;1.95;;
41885;SDS011;27567;43.084;25.616;2024-01-25T12:19:36;8.77;;;2.47;;
41885;SDS011;27567;43.084;25.616;2024-01-25T12:22:21;6.53;;;1.77;;
41885;SDS011;27567;43.084;25.616;2024-01-25T12:25:06;5.90;;;1.90;;
41885;SDS011;27567;43.084;25.616;2024-01-25T12:27:51;11.93;;;2.35;;
41885;SDS011;27567;43.084;25.616;2024-01-25T12:30:37;5.93;;;2.30;;
41885;SDS011;27567;43.084;25.616;2024-01-25T12:33:21;10.15;;;2.15;;
41885;SDS011;27567;43.084;25.616;2024-01-25T12:36:05;10.77;;;1.85;;
41885;SDS011;27567;43.084;25.616;2024-01-25T12:38:49;10.20;;;2.30;;
41885;SDS011;27567;43.084;25.616;2024-01-25T12:41:35;4.63;;;1.67;;
41885;SDS011;27567;43.084;25.616;2024-01-25T12:44:19;17.50;;;2.35;;
41885;SDS011;27567;43.084;25.616;2024-01-25T12:47:04;8.48;;;2.53;;
41885;SDS011;27567;43.084;25.616;2024-01-25T12:49:50;8.82;;;2.65;;
41885;SDS011;27567;43.084;25.616;2024-01-25T12:52:34;7.32;;;1.88;;
41885;SDS011;27567;43.084;25.616;2024-01-25T12:55:18;11.73;;;2.47;;
41885;SDS011;27567;43.084;25.616;2024-01-25T12:58:02;8.82;;;2.20;;
41885;SDS011;27567;43.084;25.616;2024-01-25T13:00:47;10.90;;;2.40;;
41885;SDS011;27567;43.084;25.616;2024-01-25T13:03:31;8.35;;;2.20;;
41885;SDS011;27567;43.084;25.616;2024-01-25T13:06:15;6.10;;;2.25;;
41885;SDS011;27567;43.084;25.616;2024-01-25T13:08:59;8.65;;;2.17;;
41885;SDS011;27567;43.084;25.616;2024-01-25T13:11:43;8.13;;;2.38;;
41885;SDS011;27567;43.084;25.616;2024-01-25T13:14:28;9.07;;;2.38;;
41885;SDS011;27567;43.084;25.616;2024-01-25T13:17:11;10.55;;;2.25;;
41885;SDS011;27567;43.084;25.616;2024-01-25T13:19:57;9.68;;;1.83;;
41885;SDS011;27567;43.084;25.616;2024-01-25T13:22:41;6.88;;;2.03;;
41885;SDS011;27567;43.084;25.616;2024-01-25T13:25:25;6.60;;;1.90;;
41885;SDS011;27567;43.084;25.616;2024-01-25T13:28:10;16.55;;;4.13;;
41885;SDS011;27567;43.084;25.616;2024-01-25T13:30:54;8.93;;;2.22;;
41885;SDS011;27567;43.084;25.616;2024-01-25T13:33:38;7.32;;;2.15;;
41885;SDS011;27567;43.084;25.616;2024-01-25T13:36:22;7.22;;;1.58;;
41885;SDS011;27567;43.084;25.616;2024-01-25T13:39:07;9.23;;;2.78;;
41885;SDS011;27567;43.084;25.616;2024-01-25T13:41:53;6.97;;;1.77;;
41885;SDS011;27567;43.084;25.616;2024-01-25T13:44:37;6.00;;;1.88;;
41885;SDS011;27567;43.084;25.616;2024-01-25T13:47:22;8.65;;;2.00;;
41885;SDS011;27567;43.084;25.616;2024-01-25T13:50:07;4.72;;;1.95;;
41885;SDS011;27567;43.084;25.616;2024-01-25T13:52:52;6.90;;;1.77;;
41885;SDS011;27567;43.084;25.616;2024-01-25T13:55:36;11.80;;;2.65;;
41885;SDS011;27567;43.084;25.616;2024-01-25T13:58:20;27.17;;;4.50;;
41885;SDS011;27567;43.084;25.616;2024-01-25T14:01:04;12.98;;;2.40;;
41885;SDS011;27567;43.084;25.616;2024-01-25T14:03:48;11.80;;;2.55;;
41885;SDS011;27567;43.084;25.616;2024-01-25T14:06:33;10.18;;;2.67;;
41885;SDS011;27567;43.084;25.616;2024-01-25T14:09:17;12.98;;;2.70;;
41885;SDS011;27567;43.084;25.616;2024-01-25T14:12:01;9.15;;;1.98;;
41885;SDS011;27567;43.084;25.616;2024-01-25T14:14:44;12.95;;;3.90;;
41885;SDS011;27567;43.084;25.616;2024-01-25T14:17:29;7.45;;;2.22;;
41885;SDS011;27567;43.084;25.616;2024-01-25T14:20:13;10.35;;;2.28;;
41885;SDS011;27567;43.084;25.616;2024-01-25T14:22:57;6.15;;;1.85;;
41885;SDS011;27567;43.084;25.616;2024-01-25T14:25:40;9.43;;;2.30;;
41885;SDS011;27567;43.084;25.616;2024-01-25T14:28:25;5.75;;;1.73;;
41885;SDS011;27567;43.084;25.616;2024-01-25T14:31:09;7.13;;;1.83;;
41885;SDS011;27567;43.084;25.616;2024-01-25T14:33:53;17.52;;;2.58;;
41885;SDS011;27567;43.084;25.616;2024-01-25T14:36:37;7.50;;;1.88;;
41885;SDS011;27567;43.084;25.616;2024-01-25T14:39:21;7.13;;;2.00;;
41885;SDS011;27567;43.084;25.616;2024-01-25T14:42:09;6.32;;;1.83;;
41885;SDS011;27567;43.084;25.616;2024-01-25T14:44:54;11.00;;;2.33;;
41885;SDS011;27567;43.084;25.616;2024-01-25T14:47:38;10.18;;;2.75;;
41885;SDS011;27567;43.084;25.616;2024-01-25T14:50:23;10.77;;;2.45;;
41885;SDS011;27567;43.084;25.616;2024-01-25T14:53:07;9.23;;;1.85;;
41885;SDS011;27567;43.084;25.616;2024-01-25T14:55:52;9.57;;;2.40;;
41885;SDS011;27567;43.084;25.616;2024-01-25T14:58:36;10.50;;;2.25;;
41885;SDS011;27567;43.084;25.616;2024-01-25T15:01:20;13.02;;;3.58;;
41885;SDS011;27567;43.084;25.616;2024-01-25T15:04:11;10.75;;;2.10;;
41885;SDS011;27567;43.084;25.616;2024-01-25T15:06:56;5.53;;;1.48;;
41885;SDS011;27567;43.084;25.616;2024-01-25T15:09:40;9.07;;;2.15;;
41885;SDS011;27567;43.084;25.616;2024-01-25T15:12:24;8.25;;;3.15;;
41885;SDS011;27567;43.084;25.616;2024-01-25T15:15:09;10.73;;;2.38;;
41885;SDS011;27567;43.084;25.616;2024-01-25T15:17:53;10.13;;;2.67;;
41885;SDS011;27567;43.084;25.616;2024-01-25T15:20:38;14.90;;;2.63;;
41885;SDS011;27567;43.084;25.616;2024-01-25T15:23:22;8.20;;;1.80;;
41885;SDS011;27567;43.084;25.616;2024-01-25T15:26:06;5.80;;;2.38;;
41885;SDS011;27567;43.084;25.616;2024-01-25T15:28:51;11.00;;;1.92;;
41885;SDS011;27567;43.084;25.616;2024-01-25T15:31:35;7.75;;;1.88;;
41885;SDS011;27567;43.084;25.616;2024-01-25T15:34:19;6.63;;;2.38;;
41885;SDS011;27567;43.084;25.616;2024-01-25T15:37:03;11.07;;;2.58;;
41885;SDS011;27567;43.084;25.616;2024-01-25T15:39:47;7.35;;;2.22;;
41885;SDS011;27567;43.084;25.616;2024-01-25T15:42:31;12.90;;;2.28;;
41885;SDS011;27567;43.084;25.616;2024-01-25T15:45:15;10.93;;;2.30;;
41885;SDS011;27567;43.084;25.616;2024-01-25T15:47:59;14.02;;;3.50;;
41885;SDS011;27567;43.084;25.616;2024-01-25T15:50:43;14.63;;;2.42;;
41885;SDS011;27567;43.084;25.616;2024-01-25T15:53:27;14.05;;;2.70;;
41885;SDS011;27567;43.084;25.616;2024-01-25T15:56:11;5.72;;;2.35;;
41885;SDS011;27567;43.084;25.616;2024-01-25T15:58:55;6.43;;;2.13;;
41885;SDS011;27567;43.084;25.616;2024-01-25T16:01:39;5.00;;;1.70;;
41885;SDS011;27567;43.084;25.616;2024-01-25T16:04:24;7.55;;;2.20;;
41885;SDS011;27567;43.084;25.616;2024-01-25T16:07:08;9.63;;;2.63;;
41885;SDS011;27567;43.084;25.616;2024-01-25T16:09:54;8.38;;;1.90;;
41885;SDS011;27567;43.084;25.616;2024-01-25T16:12:38;11.20;;;3.08;;